sensor_id;sensor_type;location;lat;lon;timestamp;temperature;humidity
52267;DHT22;38223;50.940;4.034;2024-01-27T00:02:09;6.80;99.90
52267;DHT22;38223;50.940;4.034;2024-01-27T00:04:39;6.70;99.90
52267;DHT22;38223;50.940;4.034;2024-01-27T00:07:08;6.70;99.90
52267;DHT22;38223;50.940;4.034;2024-01-27T00:09:45;6.60;99.90
52267;DHT22;38223;50.940;4.034;2024-01-27T00:12:14;6.60;99.90
52267;DHT22;38223;50.940;4.034;2024-01-27T00:14:43;6.50;99.90
52267;DHT22;38223;50.940;4.034;2024-01-27T00:17:12;6.60;99.90
52267;DHT22;38223;50.940;4.034;2024-01-27T00:19:42;6.80;99.90
52267;DHT22;38223;50.940;4.034;2024-01-27T00:22:13;6.90;99.90
52267;DHT22;38223;50.940;4.034;2024-01-27T00:24:48;6.90;99.90
52267;DHT22;38223;50.940;4.034;2024-01-27T00:27:15;7.10;99.90
52267;DHT22;38223;50.940;4.034;2024-01-27T00:29:43;7.20;99.90
52267;DHT22;38223;50.940;4.034;2024-01-27T00:32:17;7.10;99.90
52267;DHT22;38223;50.940;4.034;2024-01-27T00:34:44;7.00;99.90
52267;DHT22;38223;50.940;4.034;2024-01-27T00:37:14;6.80;99.90
52267;DHT22;38223;50.940;4.034;2024-01-27T00:39:42;6.70;99.90
52267;DHT22;38223;50.940;4.034;2024-01-27T00:42:12;6.70;99.90
52267;DHT22;38223;50.940;4.034;2024-01-27T00:44:42;6.80;99.90
52267;DHT22;38223;50.940;4.034;2024-01-27T00:47:10;6.90;99.90
52267;DHT22;38223;50.940;4.034;2024-01-27T00:49:39;6.90;99.90
52267;DHT22;38223;50.940;4.034;2024-01-27T00:52:07;6.80;99.90
52267;DHT22;38223;50.940;4.034;2024-01-27T00:54:36;6.70;99.90
52267;DHT22;38223;50.940;4.034;2024-01-27T00:57:05;6.60;99.90
52267;DHT22;38223;50.940;4.034;2024-01-27T00:59:38;6.50;99.90
52267;DHT22;38223;50.940;4.034;2024-01-27T01:02:06;6.40;99.90
52267;DHT22;38223;50.940;4.034;2024-01-27T01:04:37;6.30;99.90
52267;DHT22;38223;50.940;4.034;2024-01-27T01:07:09;6.30;99.90
52267;DHT22;38223;50.940;4.034;2024-01-27T01:09:38;6.20;99.90
52267;DHT22;38223;50.940;4.034;2024-01-27T01:12:08;6.20;99.90
52267;DHT22;38223;50.940;4.034;2024-01-27T01:14:39;6.10;99.90
52267;DHT22;38223;50.940;4.034;2024-01-27T01:17:09;6.00;99.90
52267;DHT22;38223;50.940;4.034;2024-01-27T01:19:43;5.80;99.90
52267;DHT22;38223;50.940;4.034;2024-01-27T01:22:15;6.00;99.90
52267;DHT22;38223;50.940;4.034;2024-01-27T01:24:44;6.00;99.90
52267;DHT22;38223;50.940;4.034;2024-01-27T01:27:13;5.90;99.90
52267;DHT22;38223;50.940;4.034;2024-01-27T01:29:43;5.90;99.90
52267;DHT22;38223;50.940;4.034;2024-01-27T01:32:14;5.90;99.90
52267;DHT22;38223;50.940;4.034;2024-01-27T01:34:41;5.90;99.90
52267;DHT22;38223;50.940;4.034;2024-01-27T01:37:10;5.80;99.90
52267;DHT22;38223;50.940;4.034;2024-01-27T01:39:42;5.90;99.90
52267;DHT22;38223;50.940;4.034;2024-01-27T01:42:17;5.80;99.90
52267;DHT22;38223;50.940;4.034;2024-01-27T01:44:44;5.70;99.90
52267;DHT22;38223;50.940;4.034;2024-01-27T01:47:15;5.60;99.90
52267;DHT22;38223;50.940;4.034;2024-01-27T01:49:43;5.70;99.90
52267;DHT22;38223;50.940;4.034;2024-01-27T01:52:13;5.70;99.90
52267;DHT22;38223;50.940;4.034;2024-01-27T01:54:42;5.80;99.90
52267;DHT22;38223;50.940;4.034;2024-01-27T01:57:12;5.80;99.90
52267;DHT22;38223;50.940;4.034;2024-01-27T01:59:41;5.80;99.90
52267;DHT22;38223;50.940;4.034;2024-01-27T02:02:10;5.80;99.90
52267;DHT22;38223;50.940;4.034;2024-01-27T02:04:39;5.70;99.90
52267;DHT22;38223;50.940;4.034;2024-01-27T02:07:09;5.60;99.90
52267;DHT22;38223;50.940;4.034;2024-01-27T02:09:41;5.70;99.90
52267;DHT22;38223;50.940;4.034;2024-01-27T02:12:08;5.60;99.90
52267;DHT22;38223;50.940;4.034;2024-01-27T02:14:37;5.30;99.90
52267;DHT22;38223;50.940;4.034;2024-01-27T02:19:54;5.50;99.90
52267;DHT22;38223;50.940;4.034;2024-01-27T02:22:26;5.60;99.90
52267;DHT22;38223;50.940;4.034;2024-01-27T02:24:54;5.80;99.90
52267;DHT22;38223;50.940;4.034;2024-01-27T02:27:41;5.70;99.90
52267;DHT22;38223;50.940;4.034;2024-01-27T02:30:10;5.70;99.90
52267;DHT22;38223;50.940;4.034;2024-01-27T02:32:38;5.70;99.90
52267;DHT22;38223;50.940;4.034;2024-01-27T02:35:06;5.50;99.90
52267;DHT22;38223;50.940;4.034;2024-01-27T02:37:35;5.40;99.90
52267;DHT22;38223;50.940;4.034;2024-01-27T02:40:07;5.50;99.90
52267;DHT22;38223;50.940;4.034;2024-01-27T02:42:35;5.20;99.90
52267;DHT22;38223;50.940;4.034;2024-01-27T02:45:04;5.30;99.90
52267;DHT22;38223;50.940;4.034;2024-01-27T02:47:34;5.30;99.90
52267;DHT22;38223;50.940;4.034;2024-01-27T02:50:03;4.90;99.90
52267;DHT22;38223;50.940;4.034;2024-01-27T02:52:33;5.10;99.90
52267;DHT22;38223;50.940;4.034;2024-01-27T02:55:03;5.40;99.90
52267;DHT22;38223;50.940;4.034;2024-01-27T02:57:37;5.60;99.90
52267;DHT22;38223;50.940;4.034;2024-01-27T03:00:07;5.60;99.90
52267;DHT22;38223;50.940;4.034;2024-01-27T03:02:41;5.50;99.90
52267;DHT22;38223;50.940;4.034;2024-01-27T03:05:10;5.50;99.90
52267;DHT22;38223;50.940;4.034;2024-01-27T03:07:41;5.40;99.90
52267;DHT22;38223;50.940;4.034;2024-01-27T03:10:08;5.30;99.90
52267;DHT22;38223;50.940;4.034;2024-01-27T03:12:39;5.10;99.90
52267;DHT22;38223;50.940;4.034;2024-01-27T03:15:07;4.90;99.90
52267;DHT22;38223;50.940;4.034;2024-01-27T03:17:37;4.80;99.90
52267;DHT22;38223;50.940;4.034;2024-01-27T03:20:05;4.70;99.90
52267;DHT22;38223;50.940;4.034;2024-01-27T03:22:35;4.70;99.90
52267;DHT22;38223;50.940;4.034;2024-01-27T03:25:06;4.70;99.90
52267;DHT22;38223;50.940;4.034;2024-01-27T03:27:34;4.70;99.90
52267;DHT22;38223;50.940;4.034;2024-01-27T03:30:01;4.70;99.90
52267;DHT22;38223;50.940;4.034;2024-01-27T03:32:42;4.70;99.90
52267;DHT22;38223;50.940;4.034;2024-01-27T03:35:11;4.70;99.90
52267;DHT22;38223;50.940;4.034;2024-01-27T03:37:40;4.60;99.90
52267;DHT22;38223;50.940;4.034;2024-01-27T03:40:22;4.60;99.90
52267;DHT22;38223;50.940;4.034;2024-01-27T03:42:56;4.50;99.90
52267;DHT22;38223;50.940;4.034;2024-01-27T03:45:26;4.50;99.90
52267;DHT22;38223;50.940;4.034;2024-01-27T03:47:57;4.50;99.90
52267;DHT22;38223;50.940;4.034;2024-01-27T03:50:27;4.60;99.90
52267;DHT22;38223;50.940;4.034;2024-01-27T03:52:55;4.60;99.90
52267;DHT22;38223;50.940;4.034;2024-01-27T03:55:24;4.70;99.90
52267;DHT22;38223;50.940;4.034;2024-01-27T03:57:57;4.80;99.90
52267;DHT22;38223;50.940;4.034;2024-01-27T04:00:24;4.70;99.90
52267;DHT22;38223;50.940;4.034;2024-01-27T04:02:54;4.80;99.90
52267;DHT22;38223;50.940;4.034;2024-01-27T04:05:27;4.80;99.90
52267;DHT22;38223;50.940;4.034;2024-01-27T04:07:58;4.80;99.90
52267;DHT22;38223;50.940;4.034;2024-01-27T04:10:28;4.80;99.90
52267;DHT22;38223;50.940;4.034;2024-01-27T04:13:00;4.70;99.90
52267;DHT22;38223;50.940;4.034;2024-01-27T04:15:29;4.70;99.90
52267;DHT22;38223;50.940;4.034;2024-01-27T04:18:00;4.70;99.90
52267;DHT22;38223;50.940;4.034;2024-01-27T04:20:32;4.90;99.90
52267;DHT22;38223;50.940;4.034;2024-01-27T04:22:58;5.00;99.90
52267;DHT22;38223;50.940;4.034;2024-01-27T04:25:30;5.00;99.90
52267;DHT22;38223;50.940;4.034;2024-01-27T04:27:58;4.90;99.90
52267;DHT22;38223;50.940;4.034;2024-01-27T04:30:29;4.80;99.90
52267;DHT22;38223;50.940;4.034;2024-01-27T04:32:57;4.90;99.90
52267;DHT22;38223;50.940;4.034;2024-01-27T04:35:25;4.80;99.90
52267;DHT22;38223;50.940;4.034;2024-01-27T04:37:54;4.90;99.90
52267;DHT22;38223;50.940;4.034;2024-01-27T04:40:27;4.90;99.90
52267;DHT22;38223;50.940;4.034;2024-01-27T04:42:57;4.80;99.90
52267;DHT22;38223;50.940;4.034;2024-01-27T04:45:26;4.90;99.90
52267;DHT22;38223;50.940;4.034;2024-01-27T04:47:57;4.90;99.90
52267;DHT22;38223;50.940;4.034;2024-01-27T04:50:28;4.80;99.90
52267;DHT22;38223;50.940;4.034;2024-01-27T04:52:56;4.90;99.90
52267;DHT22;38223;50.940;4.034;2024-01-27T04:55:28;4.80;99.90
52267;DHT22;38223;50.940;4.034;2024-01-27T04:57:57;4.90;99.90
52267;DHT22;38223;50.940;4.034;2024-01-27T05:00:32;5.00;99.90
52267;DHT22;38223;50.940;4.034;2024-01-27T05:02:59;4.90;99.90
52267;DHT22;38223;50.940;4.034;2024-01-27T05:05:29;4.80;99.90
52267;DHT22;38223;50.940;4.034;2024-01-27T05:07:58;4.80;99.90
52267;DHT22;38223;50.940;4.034;2024-01-27T05:10:27;4.70;99.90
52267;DHT22;38223;50.940;4.034;2024-01-27T05:12:58;4.70;99.90
52267;DHT22;38223;50.940;4.034;2024-01-27T05:15:28;4.70;99.90
52267;DHT22;38223;50.940;4.034;2024-01-27T05:17:56;4.70;99.90
52267;DHT22;38223;50.940;4.034;2024-01-27T05:20:29;4.70;99.90
52267;DHT22;38223;50.940;4.034;2024-01-27T05:22:58;4.70;99.90
52267;DHT22;38223;50.940;4.034;2024-01-27T05:25:29;4.80;99.90
52267;DHT22;38223;50.940;4.034;2024-01-27T05:27:58;4.70;99.90
52267;DHT22;38223;50.940;4.034;2024-01-27T05:30:30;4.70;99.90
52267;DHT22;38223;50.940;4.034;2024-01-27T05:32:58;4.70;99.90
52267;DHT22;38223;50.940;4.034;2024-01-27T05:35:29;4.60;99.90
52267;DHT22;38223;50.940;4.034;2024-01-27T05:37:56;4.50;99.90
52267;DHT22;38223;50.940;4.034;2024-01-27T05:40:26;4.40;99.90
52267;DHT22;38223;50.940;4.034;2024-01-27T05:42:54;4.20;99.90
52267;DHT22;38223;50.940;4.034;2024-01-27T05:45:24;4.10;99.90
52267;DHT22;38223;50.940;4.034;2024-01-27T05:47:53;4.10;99.90
52267;DHT22;38223;50.940;4.034;2024-01-27T05:50:26;4.10;99.90
52267;DHT22;38223;50.940;4.034;2024-01-27T05:52:53;4.10;99.90
52267;DHT22;38223;50.940;4.034;2024-01-27T05:55:23;4.10;99.90
52267;DHT22;38223;50.940;4.034;2024-01-27T05:58:01;4.10;99.90
52267;DHT22;38223;50.940;4.034;2024-01-27T06:00:30;4.00;99.90
52267;DHT22;38223;50.940;4.034;2024-01-27T06:02:58;3.90;99.90
52267;DHT22;38223;50.940;4.034;2024-01-27T06:05:30;4.00;99.90
52267;DHT22;38223;50.940;4.034;2024-01-27T06:08:02;4.00;99.90
52267;DHT22;38223;50.940;4.034;2024-01-27T06:10:34;4.00;99.90
52267;DHT22;38223;50.940;4.034;2024-01-27T06:13:02;4.00;99.90
52267;DHT22;38223;50.940;4.034;2024-01-27T06:15:31;4.00;99.90
52267;DHT22;38223;50.940;4.034;2024-01-27T06:18:01;4.00;99.90
52267;DHT22;38223;50.940;4.034;2024-01-27T06:20:37;3.90;99.90
52267;DHT22;38223;50.940;4.034;2024-01-27T06:23:06;3.90;99.90
52267;DHT22;38223;50.940;4.034;2024-01-27T06:25:34;3.90;99.90
52267;DHT22;38223;50.940;4.034;2024-01-27T06:28:02;4.00;99.90
52267;DHT22;38223;50.940;4.034;2024-01-27T06:30:31;4.00;99.90
52267;DHT22;38223;50.940;4.034;2024-01-27T06:33:03;4.00;99.90
52267;DHT22;38223;50.940;4.034;2024-01-27T06:35:32;4.00;99.90
52267;DHT22;38223;50.940;4.034;2024-01-27T06:38:08;4.00;99.90
52267;DHT22;38223;50.940;4.034;2024-01-27T06:40:36;4.00;99.90
52267;DHT22;38223;50.940;4.034;2024-01-27T06:43:06;4.00;99.90
52267;DHT22;38223;50.940;4.034;2024-01-27T06:45:54;3.90;99.90
52267;DHT22;38223;50.940;4.034;2024-01-27T06:48:24;3.90;99.90
52267;DHT22;38223;50.940;4.034;2024-01-27T06:50:53;3.90;99.90
52267;DHT22;38223;50.940;4.034;2024-01-27T06:53:24;3.80;99.90
52267;DHT22;38223;50.940;4.034;2024-01-27T06:55:53;3.80;99.90
52267;DHT22;38223;50.940;4.034;2024-01-27T06:58:23;3.80;99.90
52267;DHT22;38223;50.940;4.034;2024-01-27T07:00:52;3.70;99.90
52267;DHT22;38223;50.940;4.034;2024-01-27T07:03:21;3.80;99.90
52267;DHT22;38223;50.940;4.034;2024-01-27T07:05:51;3.70;99.90
52267;DHT22;38223;50.940;4.034;2024-01-27T07:08:19;3.70;99.90
52267;DHT22;38223;50.940;4.034;2024-01-27T07:13:36;3.70;99.90
52267;DHT22;38223;50.940;4.034;2024-01-27T07:16:07;3.70;99.90
52267;DHT22;38223;50.940;4.034;2024-01-27T07:18:35;3.70;99.90
52267;DHT22;38223;50.940;4.034;2024-01-27T07:21:03;3.70;99.90
52267;DHT22;38223;50.940;4.034;2024-01-27T07:23:33;3.70;99.90
52267;DHT22;38223;50.940;4.034;2024-01-27T07:26:07;3.70;99.90
52267;DHT22;38223;50.940;4.034;2024-01-27T07:28:37;3.70;99.90
52267;DHT22;38223;50.940;4.034;2024-01-27T07:31:07;3.70;99.90
52267;DHT22;38223;50.940;4.034;2024-01-27T07:33:38;3.60;99.90
52267;DHT22;38223;50.940;4.034;2024-01-27T07:36:09;3.60;99.90
52267;DHT22;38223;50.940;4.034;2024-01-27T07:38:38;3.60;99.90
52267;DHT22;38223;50.940;4.034;2024-01-27T07:41:08;3.70;99.90
52267;DHT22;38223;50.940;4.034;2024-01-27T07:43:39;3.70;99.90
52267;DHT22;38223;50.940;4.034;2024-01-27T07:46:08;3.60;99.90
52267;DHT22;38223;50.940;4.034;2024-01-27T07:48:39;3.60;99.90
52267;DHT22;38223;50.940;4.034;2024-01-27T07:51:09;3.70;99.90
52267;DHT22;38223;50.940;4.034;2024-01-27T07:53:39;3.70;99.90
52267;DHT22;38223;50.940;4.034;2024-01-27T07:56:11;3.80;99.90
52267;DHT22;38223;50.940;4.034;2024-01-27T07:58:41;3.80;99.90
52267;DHT22;38223;50.940;4.034;2024-01-27T08:01:09;3.80;99.90
52267;DHT22;38223;50.940;4.034;2024-01-27T08:03:40;3.70;99.90
52267;DHT22;38223;50.940;4.034;2024-01-27T08:06:14;3.70;99.90
52267;DHT22;38223;50.940;4.034;2024-01-27T08:08:41;3.90;99.90
52267;DHT22;38223;50.940;4.034;2024-01-27T08:11:13;3.90;99.90
52267;DHT22;38223;50.940;4.034;2024-01-27T08:13:43;4.00;99.90
52267;DHT22;38223;50.940;4.034;2024-01-27T08:16:12;3.90;99.90
52267;DHT22;38223;50.940;4.034;2024-01-27T08:21:30;4.00;99.90
52267;DHT22;38223;50.940;4.034;2024-01-27T08:23:59;4.10;99.90
52267;DHT22;38223;50.940;4.034;2024-01-27T08:26:29;4.20;99.90
52267;DHT22;38223;50.940;4.034;2024-01-27T08:28:59;4.20;99.90
52267;DHT22;38223;50.940;4.034;2024-01-27T08:31:32;4.20;99.90
52267;DHT22;38223;50.940;4.034;2024-01-27T08:33:59;4.30;99.90
52267;DHT22;38223;50.940;4.034;2024-01-27T08:36:30;4.30;99.90
52267;DHT22;38223;50.940;4.034;2024-01-27T08:39:04;4.30;99.90
52267;DHT22;38223;50.940;4.034;2024-01-27T08:41:37;4.30;99.90
52267;DHT22;38223;50.940;4.034;2024-01-27T08:44:10;4.40;99.90
52267;DHT22;38223;50.940;4.034;2024-01-27T08:46:39;4.50;99.90
52267;DHT22;38223;50.940;4.034;2024-01-27T08:49:12;4.50;99.90
52267;DHT22;38223;50.940;4.034;2024-01-27T08:51:45;4.50;99.90
52267;DHT22;38223;50.940;4.034;2024-01-27T08:54:14;4.50;99.90
52267;DHT22;38223;50.940;4.034;2024-01-27T08:56:45;4.70;99.90
52267;DHT22;38223;50.940;4.034;2024-01-27T08:59:15;4.70;99.90
52267;DHT22;38223;50.940;4.034;2024-01-27T09:01:43;4.70;99.90
52267;DHT22;38223;50.940;4.034;2024-01-27T09:04:15;4.70;99.90
52267;DHT22;38223;50.940;4.034;2024-01-27T09:06:46;4.80;99.90
52267;DHT22;38223;50.940;4.034;2024-01-27T09:09:13;4.80;99.90
52267;DHT22;38223;50.940;4.034;2024-01-27T09:11:44;4.80;99.90
52267;DHT22;38223;50.940;4.034;2024-01-27T09:14:14;4.80;99.90
52267;DHT22;38223;50.940;4.034;2024-01-27T09:16:42;4.80;99.90
52267;DHT22;38223;50.940;4.034;2024-01-27T09:19:13;4.90;99.90
52267;DHT22;38223;50.940;4.034;2024-01-27T09:21:40;5.00;99.90
52267;DHT22;38223;50.940;4.034;2024-01-27T09:24:10;5.00;99.90
52267;DHT22;38223;50.940;4.034;2024-01-27T09:26:39;5.10;99.90
52267;DHT22;38223;50.940;4.034;2024-01-27T09:29:10;5.20;99.90
52267;DHT22;38223;50.940;4.034;2024-01-27T09:31:39;5.10;99.90
52267;DHT22;38223;50.940;4.034;2024-01-27T09:34:09;5.10;99.90
52267;DHT22;38223;50.940;4.034;2024-01-27T09:36:39;5.10;99.90
52267;DHT22;38223;50.940;4.034;2024-01-27T09:39:10;5.20;99.90
52267;DHT22;38223;50.940;4.034;2024-01-27T09:41:40;5.30;99.90
52267;DHT22;38223;50.940;4.034;2024-01-27T09:44:09;5.40;99.90
52267;DHT22;38223;50.940;4.034;2024-01-27T09:46:40;5.50;99.90
52267;DHT22;38223;50.940;4.034;2024-01-27T09:49:10;5.50;99.90
52267;DHT22;38223;50.940;4.034;2024-01-27T09:51:46;5.60;99.90
52267;DHT22;38223;50.940;4.034;2024-01-27T09:54:11;5.70;99.90
52267;DHT22;38223;50.940;4.034;2024-01-27T09:56:42;5.70;99.90
52267;DHT22;38223;50.940;4.034;2024-01-27T09:59:14;5.80;99.90
52267;DHT22;38223;50.940;4.034;2024-01-27T10:01:44;5.90;99.90
52267;DHT22;38223;50.940;4.034;2024-01-27T10:04:13;5.90;99.90
52267;DHT22;38223;50.940;4.034;2024-01-27T10:06:42;6.10;99.90
52267;DHT22;38223;50.940;4.034;2024-01-27T10:09:11;6.20;99.90
52267;DHT22;38223;50.940;4.034;2024-01-27T10:11:38;6.30;99.90
52267;DHT22;38223;50.940;4.034;2024-01-27T10:14:08;6.50;99.90
52267;DHT22;38223;50.940;4.034;2024-01-27T10:16:43;6.60;99.90
52267;DHT22;38223;50.940;4.034;2024-01-27T10:19:17;6.60;99.90
52267;DHT22;38223;50.940;4.034;2024-01-27T10:21:47;6.70;99.90
52267;DHT22;38223;50.940;4.034;2024-01-27T10:24:17;6.80;99.90
52267;DHT22;38223;50.940;4.034;2024-01-27T10:26:48;6.90;99.90
52267;DHT22;38223;50.940;4.034;2024-01-27T10:29:18;7.00;99.90
52267;DHT22;38223;50.940;4.034;2024-01-27T10:31:46;7.00;99.90
52267;DHT22;38223;50.940;4.034;2024-01-27T10:34:19;7.00;99.90
52267;DHT22;38223;50.940;4.034;2024-01-27T10:36:45;7.00;99.90
52267;DHT22;38223;50.940;4.034;2024-01-27T10:39:16;6.90;99.90
52267;DHT22;38223;50.940;4.034;2024-01-27T10:42:03;6.90;99.90
52267;DHT22;38223;50.940;4.034;2024-01-27T10:44:34;7.00;99.90
52267;DHT22;38223;50.940;4.034;2024-01-27T10:47:05;7.00;99.90
52267;DHT22;38223;50.940;4.034;2024-01-27T10:49:36;7.10;99.90
52267;DHT22;38223;50.940;4.034;2024-01-27T10:52:06;7.20;99.90
52267;DHT22;38223;50.940;4.034;2024-01-27T10:54:33;7.20;99.90
52267;DHT22;38223;50.940;4.034;2024-01-27T10:57:03;7.30;99.90
52267;DHT22;38223;50.940;4.034;2024-01-27T10:59:39;7.30;99.90
52267;DHT22;38223;50.940;4.034;2024-01-27T11:02:32;7.30;99.90
52267;DHT22;38223;50.940;4.034;2024-01-27T11:05:03;7.30;99.90
52267;DHT22;38223;50.940;4.034;2024-01-27T11:07:34;7.30;99.90
52267;DHT22;38223;50.940;4.034;2024-01-27T11:10:04;7.40;99.90
52267;DHT22;38223;50.940;4.034;2024-01-27T11:12:33;7.30;99.90
52267;DHT22;38223;50.940;4.034;2024-01-27T11:15:04;7.30;99.90
52267;DHT22;38223;50.940;4.034;2024-01-27T11:17:41;7.40;99.90
52267;DHT22;38223;50.940;4.034;2024-01-27T11:20:14;7.50;99.90
52267;DHT22;38223;50.940;4.034;2024-01-27T11:22:42;7.70;99.90
52267;DHT22;38223;50.940;4.034;2024-01-27T11:27:41;7.80;99.90
52267;DHT22;38223;50.940;4.034;2024-01-27T11:32:55;8.00;99.90
52267;DHT22;38223;50.940;4.034;2024-01-27T11:35:25;8.20;99.90
52267;DHT22;38223;50.940;4.034;2024-01-27T11:37:58;8.30;99.90
52267;DHT22;38223;50.940;4.034;2024-01-27T11:40:27;8.30;99.90
52267;DHT22;38223;50.940;4.034;2024-01-27T11:43:04;8.40;99.90
52267;DHT22;38223;50.940;4.034;2024-01-27T11:45:33;8.40;99.90
52267;DHT22;38223;50.940;4.034;2024-01-27T11:48:00;8.40;99.90
52267;DHT22;38223;50.940;4.034;2024-01-27T11:50:31;8.50;99.90
52267;DHT22;38223;50.940;4.034;2024-01-27T11:53:01;8.40;99.90
52267;DHT22;38223;50.940;4.034;2024-01-27T11:55:28;8.60;99.90
52267;DHT22;38223;50.940;4.034;2024-01-27T11:57:57;8.70;99.90
52267;DHT22;38223;50.940;4.034;2024-01-27T12:00:25;8.80;99.90
52267;DHT22;38223;50.940;4.034;2024-01-27T12:02:56;8.90;99.90
52267;DHT22;38223;50.940;4.034;2024-01-27T12:05:24;8.90;99.90
52267;DHT22;38223;50.940;4.034;2024-01-27T12:07:52;9.00;99.90
52267;DHT22;38223;50.940;4.034;2024-01-27T12:10:20;9.10;99.90
52267;DHT22;38223;50.940;4.034;2024-01-27T12:15:36;8.80;99.90
52267;DHT22;38223;50.940;4.034;2024-01-27T12:18:04;8.80;99.90
52267;DHT22;38223;50.940;4.034;2024-01-27T12:20:33;8.80;99.90
52267;DHT22;38223;50.940;4.034;2024-01-27T12:23:03;8.80;99.90
52267;DHT22;38223;50.940;4.034;2024-01-27T12:25:33;8.80;99.90
52267;DHT22;38223;50.940;4.034;2024-01-27T12:28:03;8.70;99.90
52267;DHT22;38223;50.940;4.034;2024-01-27T12:30:33;8.70;99.90
52267;DHT22;38223;50.940;4.034;2024-01-27T12:33:09;8.70;99.90
52267;DHT22;38223;50.940;4.034;2024-01-27T12:35:33;8.80;99.90
52267;DHT22;38223;50.940;4.034;2024-01-27T12:38:05;9.00;99.90
52267;DHT22;38223;50.940;4.034;2024-01-27T12:40:33;9.10;99.90
52267;DHT22;38223;50.940;4.034;2024-01-27T12:43:01;9.20;99.90
52267;DHT22;38223;50.940;4.034;2024-01-27T12:45:31;9.30;99.90
52267;DHT22;38223;50.940;4.034;2024-01-27T12:48:03;9.30;99.90
52267;DHT22;38223;50.940;4.034;2024-01-27T12:50:31;9.20;99.90
52267;DHT22;38223;50.940;4.034;2024-01-27T12:52:59;9.20;99.90
52267;DHT22;38223;50.940;4.034;2024-01-27T12:55:29;9.20;99.90
52267;DHT22;38223;50.940;4.034;2024-01-27T12:57:59;9.20;99.90
52267;DHT22;38223;50.940;4.034;2024-01-27T13:00:30;9.20;99.90
52267;DHT22;38223;50.940;4.034;2024-01-27T13:03:03;9.10;99.90
52267;DHT22;38223;50.940;4.034;2024-01-27T13:05:31;9.20;99.90
52267;DHT22;38223;50.940;4.034;2024-01-27T13:08:02;9.30;99.90
52267;DHT22;38223;50.940;4.034;2024-01-27T13:10:31;9.30;99.90
52267;DHT22;38223;50.940;4.034;2024-01-27T13:13:01;9.30;99.90
52267;DHT22;38223;50.940;4.034;2024-01-27T13:15:28;9.40;99.90
52267;DHT22;38223;50.940;4.034;2024-01-27T13:17:58;9.60;99.90
52267;DHT22;38223;50.940;4.034;2024-01-27T13:20:29;9.60;99.90
52267;DHT22;38223;50.940;4.034;2024-01-27T13:22:57;9.60;99.90
52267;DHT22;38223;50.940;4.034;2024-01-27T13:25:28;9.50;99.90
52267;DHT22;38223;50.940;4.034;2024-01-27T13:27:57;9.60;99.90
52267;DHT22;38223;50.940;4.034;2024-01-27T13:30:25;9.60;99.90
52267;DHT22;38223;50.940;4.034;2024-01-27T13:32:54;9.60;99.90
52267;DHT22;38223;50.940;4.034;2024-01-27T13:35:25;9.40;99.90
52267;DHT22;38223;50.940;4.034;2024-01-27T13:37:54;9.40;99.90
52267;DHT22;38223;50.940;4.034;2024-01-27T13:40:21;9.40;99.90
52267;DHT22;38223;50.940;4.034;2024-01-27T13:42:49;9.50;99.90
52267;DHT22;38223;50.940;4.034;2024-01-27T13:45:19;9.60;99.90
52267;DHT22;38223;50.940;4.034;2024-01-27T13:47:50;9.40;99.90
52267;DHT22;38223;50.940;4.034;2024-01-27T13:50:20;9.40;99.90
52267;DHT22;38223;50.940;4.034;2024-01-27T13:52:48;9.30;99.90
52267;DHT22;38223;50.940;4.034;2024-01-27T13:55:17;9.40;99.90
52267;DHT22;38223;50.940;4.034;2024-01-27T13:57:48;9.40;99.90
52267;DHT22;38223;50.940;4.034;2024-01-27T14:00:19;9.50;99.90
52267;DHT22;38223;50.940;4.034;2024-01-27T14:02:47;9.50;99.90
52267;DHT22;38223;50.940;4.034;2024-01-27T14:05:15;9.50;99.90
52267;DHT22;38223;50.940;4.034;2024-01-27T14:07:43;9.50;99.90
52267;DHT22;38223;50.940;4.034;2024-01-27T14:10:11;9.40;99.90
52267;DHT22;38223;50.940;4.034;2024-01-27T14:12:41;9.50;99.90
52267;DHT22;38223;50.940;4.034;2024-01-27T14:15:13;9.60;99.90
52267;DHT22;38223;50.940;4.034;2024-01-27T14:17:42;9.60;99.90
52267;DHT22;38223;50.940;4.034;2024-01-27T14:20:12;9.50;99.90
52267;DHT22;38223;50.940;4.034;2024-01-27T14:22:42;9.30;99.90
52267;DHT22;38223;50.940;4.034;2024-01-27T14:25:12;9.40;99.90
52267;DHT22;38223;50.940;4.034;2024-01-27T14:27:42;9.30;99.90
52267;DHT22;38223;50.940;4.034;2024-01-27T14:30:11;9.30;99.90
52267;DHT22;38223;50.940;4.034;2024-01-27T14:32:46;9.50;99.90
52267;DHT22;38223;50.940;4.034;2024-01-27T14:35:14;9.40;99.90
52267;DHT22;38223;50.940;4.034;2024-01-27T14:37:43;9.40;99.90
52267;DHT22;38223;50.940;4.034;2024-01-27T14:40:10;9.50;99.90
52267;DHT22;38223;50.940;4.034;2024-01-27T14:42:39;9.50;99.90
52267;DHT22;38223;50.940;4.034;2024-01-27T14:45:07;9.40;99.90
52267;DHT22;38223;50.940;4.034;2024-01-27T14:47:36;9.40;99.90
52267;DHT22;38223;50.940;4.034;2024-01-27T14:50:03;9.40;99.90
52267;DHT22;38223;50.940;4.034;2024-01-27T14:52:33;9.40;99.90
52267;DHT22;38223;50.940;4.034;2024-01-27T14:55:02;9.40;99.90
52267;DHT22;38223;50.940;4.034;2024-01-27T14:57:32;9.50;99.90
52267;DHT22;38223;50.940;4.034;2024-01-27T15:00:02;9.50;99.90
52267;DHT22;38223;50.940;4.034;2024-01-27T15:02:31;9.50;99.90
52267;DHT22;38223;50.940;4.034;2024-01-27T15:05:00;9.50;99.90
52267;DHT22;38223;50.940;4.034;2024-01-27T15:07:31;9.50;99.90
52267;DHT22;38223;50.940;4.034;2024-01-27T15:10:02;9.50;99.90
52267;DHT22;38223;50.940;4.034;2024-01-27T15:12:31;9.60;99.90
52267;DHT22;38223;50.940;4.034;2024-01-27T15:15:04;9.70;99.90
52267;DHT22;38223;50.940;4.034;2024-01-27T15:17:32;9.70;99.90
52267;DHT22;38223;50.940;4.034;2024-01-27T15:20:01;9.60;99.90
52267;DHT22;38223;50.940;4.034;2024-01-27T15:22:28;9.60;99.90
52267;DHT22;38223;50.940;4.034;2024-01-27T15:24:58;9.70;99.90
52267;DHT22;38223;50.940;4.034;2024-01-27T15:27:26;9.80;99.90
52267;DHT22;38223;50.940;4.034;2024-01-27T15:29:53;9.90;99.90
52267;DHT22;38223;50.940;4.034;2024-01-27T15:32:22;9.90;99.90
52267;DHT22;38223;50.940;4.034;2024-01-27T15:34:52;10.00;99.90
52267;DHT22;38223;50.940;4.034;2024-01-27T15:37:25;9.90;99.90
52267;DHT22;38223;50.940;4.034;2024-01-27T15:39:53;9.90;99.90
52267;DHT22;38223;50.940;4.034;2024-01-27T15:42:27;9.80;99.90
52267;DHT22;38223;50.940;4.034;2024-01-27T15:44:59;9.80;99.90
52267;DHT22;38223;50.940;4.034;2024-01-27T15:47:31;9.80;99.90
52267;DHT22;38223;50.940;4.034;2024-01-27T15:50:05;10.00;99.90
52267;DHT22;38223;50.940;4.034;2024-01-27T15:52:36;10.10;99.90
52267;DHT22;38223;50.940;4.034;2024-01-27T15:55:06;10.10;99.90
52267;DHT22;38223;50.940;4.034;2024-01-27T15:57:38;9.90;99.90
52267;DHT22;38223;50.940;4.034;2024-01-27T16:00:06;9.80;99.90
52267;DHT22;38223;50.940;4.034;2024-01-27T16:02:35;9.80;99.90
52267;DHT22;38223;50.940;4.034;2024-01-27T16:05:07;9.90;99.90
52267;DHT22;38223;50.940;4.034;2024-01-27T16:07:38;9.90;99.90
52267;DHT22;38223;50.940;4.034;2024-01-27T16:10:08;10.00;99.90
52267;DHT22;38223;50.940;4.034;2024-01-27T16:12:37;10.00;99.90
52267;DHT22;38223;50.940;4.034;2024-01-27T16:15:08;10.10;99.90
52267;DHT22;38223;50.940;4.034;2024-01-27T16:17:41;10.20;99.90
52267;DHT22;38223;50.940;4.034;2024-01-27T16:20:09;10.40;99.90